Terminal Aerodrome Forecast
Issued by NWS Atlanta, GA

Home | Current Version | Previous Version | Text Only | Print | Product List | Glossary On
Versions: 1 2 3 4 5 6 7 8 9 10 11 12 13 14 15 16 17 18 19 20 21 22 23 24 25 26 27 28 29 30 31
000
FTUS42 KFFC 221635 AAA
TAFCSG
TAF AMD
KCSG 221635Z 2217/2312 10007KT 5SM -DZ BR OVC006
     FM222000 10007KT P6SM VCSH OVC012
     FM230200 09009KT 4SM -DZ BR OVC004 PROB30 2308/2312 1SM -RA BR
      OVC004=

USA.gov is the U.S. government's official web portal to all federal, state and local government web resources and services.